Time;durP1;ratioP1;P1;durP2;ratioP2;P2;SDS_P1;SDS_P2;PMS_P1;PMS_P2;Temp;Humidity;BMP_temperature;BMP_pressure;BME280_temperature;BME280_humidity;BME280_pressure;Samples;Min_cycle;Max_cycle;Signal;HPM_P1;HPM_P2
2023/10/13 00:00:29;;;;;;;;;;;;;;;16.21;100.00;101072.97;5115509;28;19915;-50
2023/10/13 00:02:55;;;;;;;;;;;;;;;16.20;100.00;101068.63;5115362;28;19980;-50
2023/10/13 00:05:20;;;;;;;;;;;;;;;16.19;100.00;101075.56;5115678;28;20345;-50
2023/10/13 00:07:46;;;;;;;;;;;;;;;16.18;100.00;101065.13;5115406;28;19919;-50
2023/10/13 00:10:12;;;;;;;;;;;;;;;16.18;100.00;101054.72;5115320;28;20366;-51
2023/10/13 00:12:37;;;;;;;;;;;;;;;16.17;100.00;101063.41;5115647;28;19950;-48
2023/10/13 00:15:04;;;;;;;;;;;;;;;16.17;100.00;101055.59;5114770;28;19921;-48
2023/10/13 00:17:31;;;;;;;;;;;;;;;16.16;100.00;101052.09;5115424;28;19968;-49
2023/10/13 00:20:00;;;;;;;;;;;;;;;16.15;100.00;101049.50;5115419;28;19912;-49
2023/10/13 00:22:30;;;;;;;;;;;;;;;16.14;100.00;101038.22;5114588;28;19964;-50
2023/10/13 00:24:58;;;;;;;;;;;;;;;16.10;100.00;101029.53;5115571;28;19920;-49
2023/10/13 00:27:28;;;;;;;;;;;;;;;16.07;100.00;101039.88;5114987;28;19912;-50
2023/10/13 00:32:42;;;;;;;;;;;;;;;16.01;100.00;101036.34;5115608;28;20275;-48
2023/10/13 00:35:15;;;;;;;;;;;;;;;15.99;100.00;101033.75;5115260;28;20386;-50
2023/10/13 00:37:44;;;;;;;;;;;;;;;15.97;100.00;101027.63;5114504;28;19918;-47
2023/10/13 00:40:24;;;;;;;;;;;;;;;15.95;100.00;101025.03;5115247;28;19998;-50
2023/10/13 00:42:52;;;;;;;;;;;;;;;15.94;100.00;101023.28;5115304;28;19946;-50
2023/10/13 00:45:17;;;;;;;;;;;;;;;15.93;100.00;101028.47;5114026;28;19912;-50
2023/10/13 00:47:56;;;;;;;;;;;;;;;15.92;100.00;101031.91;5114929;28;19911;-50
2023/10/13 00:50:23;;;;;;;;;;;;;;;15.90;100.00;101025.84;5113788;28;19977;-51
2023/10/13 00:52:50;;;;;;;;;;;;;;;15.88;100.00;101019.75;5115097;28;19912;-51
2023/10/13 00:55:22;;;;;;;;;;;;;;;15.87;100.00;101025.81;5114782;28;19914;-50
2023/10/13 00:57:49;;;;;;;;;;;;;;;15.85;100.00;101009.34;5114029;28;19938;-50
2023/10/13 01:00:24;;;;;;;;;;;;;;;15.85;100.00;101011.94;5114436;28;19956;-50
2023/10/13 01:03:06;;;;;;;;;;;;;;;15.83;100.00;101001.53;5114763;28;19984;-51
2023/10/13 01:05:32;;;;;;;;;;;;;;;15.83;100.00;101000.66;5112758;28;19912;-50
2023/10/13 01:08:01;;;;;;;;;;;;;;;15.82;100.00;100998.94;5114854;28;19911;-48
2023/10/13 01:10:27;;;;;;;;;;;;;;;15.80;100.00;100991.06;5114462;28;19914;-50
2023/10/13 01:12:52;;;;;;;;;;;;;;;15.78;100.00;100993.66;5113733;28;19912;-50
2023/10/13 01:15:20;;;;;;;;;;;;;;;15.78;100.00;100998.84;5114039;28;20355;-49
2023/10/13 01:17:46;;;;;;;;;;;;;;;15.77;100.00;100991.03;5114631;28;19935;-50
2023/10/13 01:20:18;;;;;;;;;;;;;;;15.76;100.00;100984.97;5113416;28;19943;-50
2023/10/13 01:22:43;;;;;;;;;;;;;;;15.75;100.00;100971.94;5114502;28;20396;-50
2023/10/13 01:25:12;;;;;;;;;;;;;;;15.74;100.00;100976.28;5113635;28;19912;-48
2023/10/13 01:27:38;;;;;;;;;;;;;;;15.74;100.00;100975.44;5114283;28;19918;-51
2023/10/13 01:30:10;;;;;;;;;;;;;;;15.72;100.00;100972.78;5114192;28;19911;-49
2023/10/13 01:32:40;;;;;;;;;;;;;;;15.71;100.00;100965.88;5113514;28;19964;-51
2023/10/13 01:35:06;;;;;;;;;;;;;;;15.70;100.00;100961.53;5114061;28;20367;-51
2023/10/13 01:37:31;;;;;;;;;;;;;;;15.69;100.00;100957.19;5113754;28;19923;-51
2023/10/13 01:39:56;;;;;;;;;;;;;;;15.68;100.00;100958.03;5113315;28;19912;-50
2023/10/13 01:42:23;;;;;;;;;;;;;;;15.67;100.00;100948.47;5113756;28;19912;-50
2023/10/13 01:44:48;;;;;;;;;;;;;;;15.65;100.00;100942.41;5114210;28;19958;-51
2023/10/13 01:47:15;;;;;;;;;;;;;;;15.63;100.00;100942.41;5113037;28;20358;-50
2023/10/13 01:49:47;;;;;;;;;;;;;;;15.63;100.00;100941.50;5113861;28;20341;-50
2023/10/13 01:52:15;;;;;;;;;;;;;;;15.61;100.00;100932.84;5113738;28;19915;-50
2023/10/13 01:54:41;;;;;;;;;;;;;;;15.60;100.00;100931.97;5113177;28;19934;-51
2023/10/13 01:57:06;;;;;;;;;;;;;;;15.59;100.00;100930.22;5113775;28;20290;-51
2023/10/13 01:59:31;;;;;;;;;;;;;;;15.59;100.00;100918.97;5113266;28;20017;-50
2023/10/13 02:02:00;;;;;;;;;;;;;;;15.60;100.00;100921.56;5112940;28;19919;-50
2023/10/13 02:04:26;;;;;;;;;;;;;;;15.59;100.00;100913.78;5113445;28;19937;-50
2023/10/13 02:06:52;;;;;;;;;;;;;;;15.60;100.00;100908.59;5113683;28;19916;-50
2023/10/13 02:09:25;;;;;;;;;;;;;;;15.59;100.00;100905.97;5112586;28;19911;-51
2023/10/13 02:11:54;;;;;;;;;;;;;;;15.59;100.00;100899.03;5113869;28;19908;-50
2023/10/13 02:14:21;;;;;;;;;;;;;;;15.60;100.00;100907.72;5113585;28;19911;-50
2023/10/13 02:16:47;;;;;;;;;;;;;;;15.60;100.00;100905.13;5115947;28;20329;-51
2023/10/13 02:19:15;;;;;;;;;;;;;;;15.60;100.00;100905.13;5117740;28;19912;-51
2023/10/13 02:21:43;;;;;;;;;;;;;;;15.60;100.00;100897.34;5117086;28;20010;-48
2023/10/13 02:24:18;;;;;;;;;;;;;;;15.61;100.00;100905.13;5117725;28;19960;-50
2023/10/13 02:26:43;;;;;;;;;;;;;;;15.61;100.00;100902.53;5117728;28;20287;-50
2023/10/13 02:29:12;;;;;;;;;;;;;;;15.62;100.00;100900.78;5117007;28;20351;-50
2023/10/13 02:31:38;;;;;;;;;;;;;;;15.63;100.00;100895.63;5117841;28;20053;-50
2023/10/13 02:34:07;;;;;;;;;;;;;;;15.63;100.00;100898.25;5117741;28;19919;-46
2023/10/13 02:36:36;;;;;;;;;;;;;;;15.66;100.00;100883.53;5116446;28;19912;-50
2023/10/13 02:39:07;;;;;;;;;;;;;;;15.68;100.00;100882.69;5117605;28;19915;-50
2023/10/13 02:41:33;;;;;;;;;;;;;;;15.68;100.00;100871.44;5117358;28;19918;-47
2023/10/13 02:43:58;;;;;;;;;;;;;;;15.69;100.00;100862.78;5116709;28;19915;-50
2023/10/13 02:46:28;;;;;;;;;;;;;;;15.70;100.00;100847.19;5117203;28;20359;-50
2023/10/13 02:48:53;;;;;;;;;;;;;;;15.72;100.00;100850.66;5117385;28;19912;-50
2023/10/13 02:51:30;;;;;;;;;;;;;;;15.73;100.00;100844.63;5116132;28;19912;-51
2023/10/13 02:54:02;;;;;;;;;;;;;;;15.74;100.00;100838.56;5117201;28;20375;-49
2023/10/13 02:56:27;;;;;;;;;;;;;;;15.74;100.00;100835.97;5117108;28;19954;-49
2023/10/13 02:59:14;;;;;;;;;;;;;;;15.74;100.00;100828.16;5116171;28;19955;-50
2023/10/13 03:01:38;;;;;;;;;;;;;;;15.76;100.00;100828.19;5116681;28;20434;-50
2023/10/13 03:04:08;;;;;;;;;;;;;;;15.75;100.00;100806.53;5116394;28;20011;-48
2023/10/13 03:06:34;;;;;;;;;;;;;;;15.76;100.00;100805.69;5116830;28;19915;-50
2023/10/13 03:09:16;;;;;;;;;;;;;;;15.78;100.00;100814.34;5116918;28;19919;-48
2023/10/13 03:11:51;;;;;;;;;;;;;;;15.78;100.00;100796.16;5116221;28;19916;-50
2023/10/13 03:14:32;;;;;;;;;;;;;;;15.79;100.00;100790.09;5116758;28;19999;-49
2023/10/13 03:17:14;;;;;;;;;;;;;;;15.80;100.00;100788.34;5116969;28;19912;-51
2023/10/13 03:19:46;;;;;;;;;;;;;;;15.80;100.00;100781.44;5115967;28;19919;-50
2023/10/13 03:22:12;;;;;;;;;;;;;;;15.82;100.00;100776.28;5116605;28;20010;-47
2023/10/13 03:24:47;;;;;;;;;;;;;;;15.82;100.00;100767.63;5116944;28;19923;-50
2023/10/13 03:27:16;;;;;;;;;;;;;;;15.83;100.00;100771.94;5115684;28;19911;-48
2023/10/13 03:29:43;;;;;;;;;;;;;;;15.84;100.00;100760.69;5116593;28;19943;-49
2023/10/13 03:32:12;;;;;;;;;;;;;;;15.84;100.00;100763.31;5115937;28;19912;-49
2023/10/13 03:34:49;;;;;;;;;;;;;;;15.86;100.00;100759.00;5116549;28;19907;-51
2023/10/13 03:37:37;;;;;;;;;;;;;;;15.87;100.00;100745.13;5116385;28;19912;-50
2023/10/13 03:43:06;;;;;;;;;;;;;;;15.90;100.00;100727.81;5116456;28;20359;-49
2023/10/13 03:46:00;;;;;;;;;;;;;;;15.93;100.00;100732.16;5116238;28;19915;-50
2023/10/13 03:51:08;;;;;;;;;;;;;;;15.95;100.00;100720.91;5116376;28;20015;-51
2023/10/13 03:53:34;;;;;;;;;;;;;;;15.99;100.00;100718.34;5115141;28;19954;-50
2023/10/13 03:56:12;;;;;;;;;;;;;;;16.00;100.00;100720.06;5116219;28;19939;-49
2023/10/13 03:58:47;;;;;;;;;;;;;;;16.03;100.00;100713.16;5115940;28;19946;-47
2023/10/13 04:01:15;;;;;;;;;;;;;;;16.04;100.00;100704.50;5114769;28;19915;-46
2023/10/13 04:03:57;;;;;;;;;;;;;;;16.08;100.00;100701.03;5115921;28;19961;-51
2023/10/13 04:06:48;;;;;;;;;;;;;;;16.11;100.00;100690.69;5115869;28;19908;-51
2023/10/13 04:17:13;;;;;;;;;;;;;;;16.18;100.00;100665.56;5083776;28;20026;-49
2023/10/13 04:20:12;;;;;;;;;;;;;;;16.20;100.00;100657.78;5115671;28;19911;-50
2023/10/13 04:23:03;;;;;;;;;;;;;;;16.23;100.00;100662.97;5114452;28;20023;-50
2023/10/13 04:28:15;;;;;;;;;;;;;;;16.27;100.00;100659.53;5115903;28;20365;-48
2023/10/13 04:33:52;;;;;;;;;;;;;;;16.31;100.00;100661.28;5114956;28;20264;-51
2023/10/13 04:39:00;;;;;;;;;;;;;;;16.35;100.00;100650.00;5115225;28;20381;-48
2023/10/13 04:41:31;;;;;;;;;;;;;;;16.39;100.00;100651.75;5114962;28;19958;-48
2023/10/13 04:44:23;;;;;;;;;;;;;;;16.41;100.00;100652.63;5114589;28;19919;-47
2023/10/13 04:49:28;;;;;;;;;;;;;;;16.45;100.00;100648.31;5113855;28;19911;-50
2023/10/13 04:52:01;;;;;;;;;;;;;;;16.48;100.00;100652.66;5114908;28;19911;-50
2023/10/13 04:54:33;;;;;;;;;;;;;;;16.48;100.00;100648.31;5114781;28;19915;-50
2023/10/13 05:05:21;;;;;;;;;;;;;;;16.53;100.00;100646.59;5114130;28;20278;-50
2023/10/13 06:29:46;;;;;;;;;;;;;;;16.57;100.00;100553.81;5112892;28;19923;-46
2023/10/13 06:32:12;;;;;;;;;;;;;;;16.58;100.00;100550.34;5113413;28;19908;-46
2023/10/13 06:34:46;;;;;;;;;;;;;;;16.57;100.00;100548.59;5112815;28;19911;-46
2023/10/13 06:37:24;;;;;;;;;;;;;;;16.56;100.00;100539.06;5113341;28;19911;-47
2023/10/13 06:39:50;;;;;;;;;;;;;;;16.57;100.00;100533.00;5113535;28;19919;-46
2023/10/13 06:42:16;;;;;;;;;;;;;;;16.56;100.00;100531.25;5112166;28;19915;-46
2023/10/13 06:44:45;;;;;;;;;;;;;;;16.54;100.00;100527.78;5113201;28;19918;-46
2023/10/13 06:47:11;;;;;;;;;;;;;;;16.55;100.00;100527.78;5113183;28;20402;-46
2023/10/13 06:49:38;;;;;;;;;;;;;;;16.55;100.00;100521.72;5112601;28;19912;-46
2023/10/13 06:52:06;;;;;;;;;;;;;;;16.56;100.00;100515.63;5113169;28;20427;-47
2023/10/13 06:54:33;;;;;;;;;;;;;;;16.58;100.00;100513.91;5112901;28;20331;-46
2023/10/13 06:56:59;;;;;;;;;;;;;;;16.58;100.00;100511.31;5112208;28;19998;-48
2023/10/13 06:59:26;;;;;;;;;;;;;;;16.58;100.00;100516.53;5112722;28;20427;-48
2023/10/13 07:01:52;;;;;;;;;;;;;;;16.59;100.00;100510.44;5114107;28;19964;-48
2023/10/13 07:04:17;;;;;;;;;;;;;;;16.61;100.00;100498.28;5116150;28;19912;-46
2023/10/13 07:06:48;;;;;;;;;;;;;;;16.63;100.00;100491.38;5117031;28;19912;-47
2023/10/13 07:09:39;;;;;;;;;;;;;;;16.64;100.00;100500.88;5116691;28;19919;-48
2023/10/13 07:12:01;;;;;;;;;;;;;;;16.64;100.00;100490.47;5115994;28;19918;-47
2023/10/13 07:14:26;;;;;;;;;;;;;;;16.67;100.00;100477.47;5116491;28;20299;-46
2023/10/13 07:17:00;;;;;;;;;;;;;;;16.69;100.00;100480.94;5116185;28;20350;-46
2023/10/13 07:19:28;;;;;;;;;;;;;;;16.71;100.00;100473.13;5116489;28;19973;-48
2023/10/13 07:22:03;;;;;;;;;;;;;;;16.73;100.00;100471.38;5116768;28;19912;-46
2023/10/13 07:24:31;;;;;;;;;;;;;;;16.76;100.00;100456.63;5115809;28;19907;-50
2023/10/13 07:27:04;;;;;;;;;;;;;;;16.78;100.00;100462.72;5116724;28;19943;-46
2023/10/13 07:29:30;;;;;;;;;;;;;;;16.83;100.00;100461.84;5116361;28;20000;-46
2023/10/13 07:31:55;;;;;;;;;;;;;;;16.88;100.00;100454.88;5115737;28;20387;-46
2023/10/13 07:34:26;;;;;;;;;;;;;;;16.92;100.00;100462.69;5116200;28;19919;-46
2023/10/13 07:37:00;;;;;;;;;;;;;;;16.99;100.00;100462.69;5116685;28;19919;-47
2023/10/13 07:39:28;;;;;;;;;;;;;;;17.04;100.00;100468.75;5115455;28;19919;-47
2023/10/13 07:42:15;;;;;;;;;;;;;;;17.10;100.00;100466.13;5116415;28;19918;-46
2023/10/13 07:44:45;;;;;;;;;;;;;;;17.17;100.00;100462.63;5116339;28;19911;-47
2023/10/13 07:47:11;;;;;;;;;;;;;;;17.28;100.00;100457.38;5115415;28;19912;-48
2023/10/13 07:49:37;;;;;;;;;;;;;;;17.35;100.00;100459.09;5116264;28;19943;-46
2023/10/13 07:54:49;;;;;;;;;;;;;;;17.48;100.00;100451.19;5115977;28;19912;-49
2023/10/13 07:57:14;;;;;;;;;;;;;;;17.53;100.00;100439.00;5115594;28;19939;-49
2023/10/13 07:59:49;;;;;;;;;;;;;;;17.55;100.00;100447.69;5114988;28;19958;-48
2023/10/13 08:02:33;;;;;;;;;;;;;;;17.60;100.00;100432.91;5115767;28;19986;-51
2023/10/13 08:05:04;;;;;;;;;;;;;;;17.64;100.00;100437.22;5116048;28;19912;-48
2023/10/13 08:07:31;;;;;;;;;;;;;;;17.67;100.00;100437.19;5114763;28;19918;-49
2023/10/13 08:09:59;;;;;;;;;;;;;;;17.72;100.00;100434.56;5115671;28;19957;-47
2023/10/13 08:12:24;;;;;;;;;;;;;;;17.76;100.00;100437.13;5115386;28;20359;-47
2023/10/13 08:14:56;;;;;;;;;;;;;;;17.78;100.00;100435.38;5114470;28;19912;-47
2023/10/13 08:17:31;;;;;;;;;;;;;;;17.85;100.00;100438.78;5115409;28;19915;-47
2023/10/13 08:19:56;;;;;;;;;;;;;;;17.89;100.00;100430.06;5115440;28;20276;-48
2023/10/13 08:27:34;;;;;;;;;;;;;;;18.15;100.00;100446.44;5114423;28;19911;-47
2023/10/13 08:32:54;;;;;;;;;;;;;;;18.34;100.00;100436.72;5115697;28;19919;-47
2023/10/13 08:35:33;;;;;;;;;;;;;;;18.40;100.00;100440.13;5114458;28;19912;-49
2023/10/13 08:43:13;;;;;;;;;;;;;;;18.52;100.00;100417.41;5114373;28;19958;-47
2023/10/13 08:48:12;;;;;;;;;;;;;;;18.68;100.00;100419.00;5115279;28;20279;-48
2023/10/13 08:51:31;;;;;;;;;;;;;;;18.74;100.00;100418.03;5114644;28;19937;-49
2023/10/13 08:53:47;;;;;;;;;;;;;;;18.79;100.00;100428.44;5111218;28;20385;-47
2023/10/13 08:56:17;;;;;;;;;;;;;;;18.75;100.00;100418.03;5113957;28;19915;-51
2023/10/13 09:01:46;;;;;;;;;;;;;;;18.71;100.00;100412.88;5114289;28;19912;-50
2023/10/13 09:12:19;;;;;;;;;;;;;;;18.93;100.00;100392.63;5114272;28;19911;-50
2023/10/13 09:14:57;;;;;;;;;;;;;;;18.98;100.00;100397.78;5114717;28;19912;-51
2023/10/13 09:17:35;;;;;;;;;;;;;;;19.02;100.00;100391.66;5113493;28;19922;-49
2023/10/13 09:25:34;;;;;;;;;;;;;;;19.02;100.00;100395.13;5112447;28;19964;-51
2023/10/13 09:28:00;;;;;;;;;;;;;;;19.03;100.00;100394.25;5114280;28;20006;-51
2023/10/13 09:30:28;;;;;;;;;;;;;;;19.05;100.00;100386.38;5113507;28;19962;-48
2023/10/13 09:33:08;;;;;;;;;;;;;;;19.07;100.00;100385.47;5114110;28;19980;-51
2023/10/13 09:35:37;;;;;;;;;;;;;;;19.09;100.00;100382.84;5113972;28;19918;-47
2023/10/13 09:38:02;;;;;;;;;;;;;;;19.10;100.00;100389.78;5113376;28;19911;-51
2023/10/13 09:40:46;;;;;;;;;;;;;;;19.17;100.00;100393.19;5113645;28;19953;-50
2023/10/13 09:43:15;;;;;;;;;;;;;;;19.27;100.00;100381.72;5113696;28;19911;-49
2023/10/13 09:45:43;;;;;;;;;;;;;;;19.38;100.00;100379.84;5112935;28;19943;-48
2023/10/13 09:48:16;;;;;;;;;;;;;;;19.45;100.00;100374.53;5114079;28;19994;-51
2023/10/13 09:50:44;;;;;;;;;;;;;;;19.45;100.00;100374.53;5113945;28;19998;-48
2023/10/13 09:53:10;;;;;;;;;;;;;;;19.44;100.00;100383.25;5113159;28;19919;-51
2023/10/13 09:55:39;;;;;;;;;;;;;;;19.44;100.00;100367.56;5113658;28;19912;-51
2023/10/13 09:58:14;;;;;;;;;;;;;;;19.48;100.00;100364.00;5113483;28;20005;-51
2023/10/13 10:01:20;;;;;;;;;;;;;;;19.61;100.00;100355.09;5113034;28;19936;-51
2023/10/13 10:03:51;;;;;;;;;;;;;;;19.78;100.00;100362.69;5113875;28;20340;-51
2023/10/13 10:06:31;;;;;;;;;;;;;;;19.87;100.00;100361.69;5112699;28;20363;-49
2023/10/13 10:09:12;;;;;;;;;;;;;;;19.93;100.00;100356.34;5113855;28;19912;-51
2023/10/13 10:11:51;;;;;;;;;;;;;;;19.94;100.00;100342.38;5113856;28;20022;-48
2023/10/13 10:14:24;;;;;;;;;;;;;;;19.90;100.00;100346.81;5112535;28;19912;-49
2023/10/13 10:16:59;;;;;;;;;;;;;;;19.87;100.00;100351.22;5113629;28;19912;-47
2023/10/13 10:19:26;;;;;;;;;;;;;;;19.79;100.00;100332.16;5113435;28;19964;-47
2023/10/13 10:22:02;;;;;;;;;;;;;;;19.73;100.00;100341.81;5112867;28;19918;-47
2023/10/13 10:24:30;;;;;;;;;;;;;;;19.70;100.00;100339.28;5113222;28;19912;-50
2023/10/13 10:26:55;;;;;;;;;;;;;;;19.64;100.00;100328.91;5112683;28;19920;-48
2023/10/13 10:29:21;;;;;;;;;;;;;;;19.61;100.00;100328.94;5113137;28;19915;-47
2023/10/13 10:31:46;;;;;;;;;;;;;;;19.58;100.00;100331.63;5113423;28;19911;-47
2023/10/13 10:34:18;;;;;;;;;;;;;;;19.59;100.00;100325.50;5112505;28;19964;-51
2023/10/13 10:36:46;;;;;;;;;;;;;;;19.66;100.00;100321.88;5114302;28;19920;-47
2023/10/13 10:39:12;;;;;;;;;;;;;;;19.71;100.00;100314.84;5117298;28;19920;-47
2023/10/13 10:44:26;;;;;;;;;;;;;;;19.82;100.00;100313.81;5117457;28;19950;-48
2023/10/13 10:47:07;;;;;;;;;;;;;;;19.87;100.00;100319.84;5117492;28;19912;-47
2023/10/13 10:49:37;;;;;;;;;;;;;;;19.92;100.00;100325.84;5116272;28;19960;-47
2023/10/13 10:52:04;;;;;;;;;;;;;;;19.89;100.00;100323.28;5117347;28;20374;-51
2023/10/13 10:54:32;;;;;;;;;;;;;;;19.87;100.00;100317.22;5116953;28;19918;-52
2023/10/13 10:57:10;;;;;;;;;;;;;;;19.88;100.00;100303.25;5116384;28;20390;-49
2023/10/13 10:59:37;;;;;;;;;;;;;;;19.87;100.00;100314.59;5116878;28;19923;-52
2023/10/13 11:02:02;;;;;;;;;;;;;;;19.92;100.00;100331.06;5116306;28;20077;-50
2023/10/13 11:04:33;;;;;;;;;;;;;;;20.05;100.00;100329.09;5116819;28;20006;-48
2023/10/13 11:06:59;;;;;;;;;;;;;;;20.15;100.00;100335.06;5116986;28;19947;-47
2023/10/13 11:11:57;;;;;;;;;;;;;;;20.32;100.00;100325.16;5117103;28;19928;-48
2023/10/13 11:14:22;;;;;;;;;;;;;;;20.43;100.00;100321.47;5116428;28;20307;-50
2023/10/13 11:16:53;;;;;;;;;;;;;;;20.49;100.00;100303.00;5116166;28;20400;-48
2023/10/13 11:19:28;;;;;;;;;;;;;;;20.49;100.00;100290.78;5116391;28;19915;-47
2023/10/13 11:21:57;;;;;;;;;;;;;;;20.45;100.00;100291.75;5116995;28;19930;-48
2023/10/13 11:24:22;;;;;;;;;;;;;;;20.39;100.00;100292.72;5115770;28;19957;-52
2023/10/13 11:26:49;;;;;;;;;;;;;;;20.37;100.00;100298.88;5116747;28;19912;-47
2023/10/13 11:29:21;;;;;;;;;;;;;;;20.42;100.00;100270.84;5116279;28;19965;-48
2023/10/13 11:31:53;;;;;;;;;;;;;;;20.55;100.00;100274.06;5115719;28;19965;-48
2023/10/13 11:34:18;;;;;;;;;;;;;;;20.66;100.00;100264.25;5116149;28;20431;-47
2023/10/13 11:36:43;;;;;;;;;;;;;;;20.77;100.00;100252.69;5116539;28;19915;-47
2023/10/13 11:39:09;;;;;;;;;;;;;;;20.87;100.00;100246.38;5115587;28;20376;-47
2023/10/13 11:41:37;;;;;;;;;;;;;;;20.95;100.00;100254.03;5116034;28;20359;-50
2023/10/13 11:47:07;;;;;;;;;;;;;;;21.20;100.00;100243.84;5102673;28;19958;-48
2023/10/13 11:49:34;;;;;;;;;;;;;;;21.25;100.00;100230.63;5115120;28;19923;-47
2023/10/13 11:52:15;;;;;;;;;;;;;;;21.30;100.00;100232.22;5115278;28;20309;-47
2023/10/13 11:54:41;;;;;;;;;;;;;;;21.32;100.00;100233.06;5116261;28;20312;-48
2023/10/13 11:57:07;;;;;;;;;;;;;;;21.26;96.82;100227.97;5116050;28;20390;-48
2023/10/13 11:59:36;;;;;;;;;;;;;;;21.26;97.79;100224.50;5114526;28;19935;-47
2023/10/13 12:07:45;;;;;;;;;;;;;;;21.28;94.69;100213.06;5053111;28;19971;-51
2023/10/13 12:10:33;;;;;;;;;;;;;;;21.31;94.77;100212.13;5053047;28;19913;-50
2023/10/13 12:13:05;;;;;;;;;;;;;;;21.38;95.03;100206.69;5092953;28;19911;-49
2023/10/13 12:15:36;;;;;;;;;;;;;;;21.44;95.41;100202.19;5115452;28;19915;-47
2023/10/13 12:18:03;;;;;;;;;;;;;;;21.50;94.85;100202.03;5115775;28;19920;-47
2023/10/13 12:20:32;;;;;;;;;;;;;;;21.58;96.13;100210.59;5114532;28;20267;-50
2023/10/13 12:22:59;;;;;;;;;;;;;;;21.65;93.73;100209.53;5115364;28;20423;-49
2023/10/13 12:25:25;;;;;;;;;;;;;;;21.75;94.76;100209.28;5115240;28;19956;-50
2023/10/13 12:27:56;;;;;;;;;;;;;;;21.84;93.47;100204.63;5114673;28;20010;-48
2023/10/13 12:30:48;;;;;;;;;;;;;;;21.88;88.74;100215.91;5115004;28;19972;-48
2023/10/13 12:33:16;;;;;;;;;;;;;;;21.91;89.61;100214.97;5115228;28;19920;-47
2023/10/13 12:52:16;;;;;;;;;;;;;;;21.86;87.75;100194.13;5090662;28;19918;-51
2023/10/13 12:54:58;;;;;;;;;;;;;;;21.90;88.70;100192.25;5114075;28;20011;-51
2023/10/13 12:57:27;;;;;;;;;;;;;;;21.95;85.80;100191.25;5114458;28;19958;-51
2023/10/13 12:59:53;;;;;;;;;;;;;;;21.92;89.43;100180.81;5115503;28;19996;-51
2023/10/13 13:02:24;;;;;;;;;;;;;;;21.90;87.09;100172.16;5113888;28;19912;-47
2023/10/13 13:04:54;;;;;;;;;;;;;;;21.91;83.79;100194.84;5114813;28;19907;-51
2023/10/13 13:07:19;;;;;;;;;;;;;;;21.93;82.90;100185.16;5114480;28;19964;-51
2023/10/13 13:09:44;;;;;;;;;;;;;;;21.95;86.53;100190.34;5113771;28;19908;-47
2023/10/13 13:12:12;;;;;;;;;;;;;;;21.93;85.59;100179.91;5114426;28;20363;-50
2023/10/13 13:14:40;;;;;;;;;;;;;;;21.92;84.27;100185.22;5114709;28;19911;-48
2023/10/13 13:17:05;;;;;;;;;;;;;;;21.91;86.87;100188.72;5113809;28;20010;-48
2023/10/13 13:19:39;;;;;;;;;;;;;;;21.88;83.23;100184.44;5114050;28;19961;-47
2023/10/13 13:22:13;;;;;;;;;;;;;;;21.87;82.59;100196.69;5114560;28;19915;-50
2023/10/13 13:24:44;;;;;;;;;;;;;;;21.89;82.42;100177.44;5113552;28;19918;-47
2023/10/13 13:27:13;;;;;;;;;;;;;;;21.94;81.90;100167.69;5114507;28;19911;-51
2023/10/13 13:29:38;;;;;;;;;;;;;;;21.97;80.08;100175.44;5113448;28;19912;-48
2023/10/13 13:32:05;;;;;;;;;;;;;;;21.99;79.94;100177.13;5114289;28;19912;-47
2023/10/13 13:34:30;;;;;;;;;;;;;;;21.98;79.17;100188.53;5113784;28;20787;-48
2023/10/13 13:37:00;;;;;;;;;;;;;;;21.95;80.07;100172.88;5113288;28;20569;-51
2023/10/13 13:39:30;;;;;;;;;;;;;;;21.91;82.47;100162.50;5113925;28;19918;-48
2023/10/13 13:41:56;;;;;;;;;;;;;;;21.84;80.26;100170.53;5114306;28;19915;-52
2023/10/13 13:44:28;;;;;;;;;;;;;;;21.78;79.45;100170.72;5113009;28;19911;-48
2023/10/13 13:46:56;;;;;;;;;;;;;;;21.80;82.09;100168.06;5113890;28;20459;-49
2023/10/13 13:49:28;;;;;;;;;;;;;;;21.67;82.13;100178.03;5113861;28;19957;-50
2023/10/13 13:51:53;;;;;;;;;;;;;;;21.49;83.23;100171.47;5113276;28;20005;-48
2023/10/13 13:54:19;;;;;;;;;;;;;;;21.35;85.87;100170.06;5113752;28;19921;-48
2023/10/13 13:56:44;;;;;;;;;;;;;;;21.22;86.16;100147.72;5113927;28;20343;-49
2023/10/13 13:59:14;;;;;;;;;;;;;;;21.15;86.46;100173.22;5112835;28;19919;-47
2023/10/13 14:01:40;;;;;;;;;;;;;;;21.20;86.33;100159.97;5113698;28;19957;-48
2023/10/13 14:04:06;;;;;;;;;;;;;;;21.27;83.68;100155.47;5113722;28;19911;-51
2023/10/13 14:06:33;;;;;;;;;;;;;;;21.36;84.10;100149.97;5112661;28;19918;-49
2023/10/13 14:09:04;;;;;;;;;;;;;;;21.46;84.30;100155.81;5113855;28;19998;-48
2023/10/13 14:14:11;;;;;;;;;;;;;;;21.53;83.33;100146.91;5113022;28;19911;-51
2023/10/13 14:16:37;;;;;;;;;;;;;;;21.53;81.20;100170.50;5113572;28;19911;-47
2023/10/13 14:19:07;;;;;;;;;;;;;;;21.55;81.86;100160.88;5112739;28;19912;-49
2023/10/13 14:21:33;;;;;;;;;;;;;;;21.58;82.89;100162.56;5113395;28;19911;-48
2023/10/13 14:24:00;;;;;;;;;;;;;;;21.59;82.76;100173.00;5113771;28;19912;-51
2023/10/13 14:26:25;;;;;;;;;;;;;;;21.61;82.17;100150.19;5112451;28;19908;-48
2023/10/13 14:29:09;;;;;;;;;;;;;;;21.67;82.24;100159.66;5113417;28;19919;-48
2023/10/13 14:31:37;;;;;;;;;;;;;;;21.71;81.22;100156.91;5113342;28;19908;-47
2023/10/13 14:34:03;;;;;;;;;;;;;;;21.75;80.10;100167.31;5112735;28;19916;-52
2023/10/13 14:36:28;;;;;;;;;;;;;;;21.76;79.67;100169.06;5113007;28;20290;-49
2023/10/13 14:38:54;;;;;;;;;;;;;;;21.79;79.91;100163.72;5113461;28;20381;-51
2023/10/13 14:41:19;;;;;;;;;;;;;;;21.80;78.97;100173.31;5112066;28;19912;-51
2023/10/13 14:43:47;;;;;;;;;;;;;;;21.76;79.94;100169.06;5113243;28;19912;-51
2023/10/13 14:46:15;;;;;;;;;;;;;;;21.67;81.29;100171.00;5113278;28;19994;-51
2023/10/13 14:48:41;;;;;;;;;;;;;;;21.59;81.24;100162.50;5112640;28;19911;-47
2023/10/13 14:51:12;;;;;;;;;;;;;;;21.55;83.33;100166.13;5113346;28;20282;-47
2023/10/13 14:53:41;;;;;;;;;;;;;;;21.53;82.90;100165.25;5113348;28;20355;-51
2023/10/13 14:56:08;;;;;;;;;;;;;;;21.49;81.77;100168.84;5112833;28;19919;-49
2023/10/13 14:58:33;;;;;;;;;;;;;;;21.47;84.49;100183.75;5112685;28;20274;-49
2023/10/13 15:01:00;;;;;;;;;;;;;;;21.38;83.54;100177.88;5112686;28;19911;-48
2023/10/13 15:03:25;;;;;;;;;;;;;;;21.29;84.29;100159.75;5112891;28;20343;-48
2023/10/13 15:05:51;;;;;;;;;;;;;;;21.18;87.50;100161.78;5113266;28;19927;-50
2023/10/13 15:08:18;;;;;;;;;;;;;;;20.96;88.35;100161.47;5112232;28;19910;-48
2023/10/13 15:10:44;;;;;;;;;;;;;;;20.77;90.95;100161.91;5113224;28;20355;-48
2023/10/13 15:13:10;;;;;;;;;;;;;;;20.62;90.80;100170.06;5113375;28;19912;-47
2023/10/13 15:15:35;;;;;;;;;;;;;;;20.55;90.95;100169.34;5112151;28;19914;-49
2023/10/13 15:18:01;;;;;;;;;;;;;;;20.58;90.76;100169.31;5113162;28;19912;-48
2023/10/13 15:20:26;;;;;;;;;;;;;;;20.60;91.31;100161.41;5112533;28;20474;-48
2023/10/13 15:22:59;;;;;;;;;;;;;;;20.56;93.35;100158.00;5112199;28;19916;-48
2023/10/13 15:25:32;;;;;;;;;;;;;;;20.41;95.17;100161.81;5115816;28;19912;-48
2023/10/13 15:28:04;;;;;;;;;;;;;;;20.23;95.98;100143.03;5116911;28;19907;-47
2023/10/13 15:30:48;;;;;;;;;;;;;;;20.06;98.09;100127.69;5115650;28;19912;-48
2023/10/13 15:33:14;;;;;;;;;;;;;;;19.92;99.75;100134.09;5116360;28;19918;-47
2023/10/13 15:35:42;;;;;;;;;;;;;;;19.79;100.00;100133.44;5116487;28;20002;-47
2023/10/13 15:38:08;;;;;;;;;;;;;;;19.70;100.00;100114.44;5115970;28;19999;-47
2023/10/13 15:40:33;;;;;;;;;;;;;;;19.63;100.00;100111.97;5116016;28;19974;-49
2023/10/13 15:42:59;;;;;;;;;;;;;;;19.58;100.00;100112.06;5116538;28;19918;-48
2023/10/13 15:45:28;;;;;;;;;;;;;;;19.53;100.00;100112.13;5115373;28;19919;-48
2023/10/13 15:47:54;;;;;;;;;;;;;;;19.49;100.00;100107.00;5116276;28;19968;-47
2023/10/13 15:50:22;;;;;;;;;;;;;;;19.41;100.00;100108.00;5114973;28;20002;-49